Time;durP1;ratioP1;P1;durP2;ratioP2;P2;SDS_P1;SDS_P2;PMS_P1;PMS_P2;Temp;Humidity;BMP_temperature;BMP_pressure;BME280_temperature;BME280_humidity;BME280_pressure;Samples;Min_cycle;Max_cycle;Signal;HPM_P1;HPM_P2
2022/07/13 00:00:05;;;;;;;1.00;0.50;;;;;;;16.25;58.62;99355.03;5012160;28;20076;-61
2022/07/13 00:03:02;;;;;;;0.65;0.30;;;;;;;16.27;59.70;99352.28;4988570;28;20490;-63
2022/07/13 00:05:47;;;;;;;2.58;0.50;;;;;;;16.31;59.36;99357.16;5011715;28;20709;-62
2022/07/13 00:08:32;;;;;;;0.98;0.43;;;;;;;16.26;57.10;99348.78;5025252;28;20432;-63
2022/07/13 00:11:17;;;;;;;0.65;0.35;;;;;;;16.15;55.94;99349.69;5011244;28;20041;-61
2022/07/13 00:14:01;;;;;;;3.33;0.57;;;;;;;16.10;57.16;99344.78;5012111;28;20120;-62
2022/07/13 00:16:46;;;;;;;1.15;0.60;;;;;;;16.16;58.67;99351.34;5011149;28;20402;-62
2022/07/13 00:19:31;;;;;;;0.90;0.40;;;;;;;16.12;57.10;99347.28;5010535;28;20042;-62
2022/07/13 00:22:16;;;;;;;1.02;0.43;;;;;;;16.04;56.65;99350.56;4998549;28;20797;-62
2022/07/13 00:25:01;;;;;;;1.27;0.52;;;;;;;15.99;56.71;99353.56;5010386;28;20522;-62
2022/07/13 00:27:46;;;;;;;0.73;0.50;;;;;;;15.95;59.31;99340.72;5010741;28;20363;-62
2022/07/13 00:30:30;;;;;;;1.58;0.70;;;;;;;15.95;57.65;99348.63;5010976;28;20056;-62
2022/07/13 00:33:15;;;;;;;1.73;0.60;;;;;;;15.94;58.40;99352.25;5017927;28;20061;-62
2022/07/13 00:36:00;;;;;;;1.30;0.50;;;;;;;15.98;57.62;99353.69;5022095;28;20442;-62
2022/07/13 00:38:45;;;;;;;2.75;0.75;;;;;;;15.99;59.18;99352.75;5023934;28;20144;-61
2022/07/13 00:41:29;;;;;;;1.80;0.60;;;;;;;15.92;56.84;99355.03;5023757;28;20075;-62
2022/07/13 00:44:16;;;;;;;1.48;0.57;;;;;;;15.91;58.48;99357.78;5019965;28;20068;-62
2022/07/13 00:47:01;;;;;;;1.23;0.50;;;;;;;15.82;57.43;99359.38;5016652;28;20525;-63
2022/07/13 00:49:46;;;;;;;0.85;0.65;;;;;;;15.75;58.57;99353.75;5018638;28;20057;-61
2022/07/13 00:52:30;;;;;;;0.60;0.47;;;;;;;15.74;58.66;99354.72;5011202;28;20108;-62
2022/07/13 00:55:16;;;;;;;3.60;0.60;;;;;;;15.58;57.75;99353.31;5009857;28;20053;-62
2022/07/13 00:58:01;;;;;;;2.10;0.80;;;;;;;15.59;58.12;99354.16;4995963;28;20124;-61
2022/07/13 01:00:47;;;;;;;1.88;0.70;;;;;;;15.52;59.12;99354.66;5010541;28;20061;-63
2022/07/13 01:03:31;;;;;;;2.47;0.60;;;;;;;15.60;60.41;99358.47;5010728;28;20454;-63
2022/07/13 01:06:17;;;;;;;1.05;0.90;;;;;;;15.54;58.78;99351.06;5009520;28;20045;-63
2022/07/13 01:09:02;;;;;;;1.50;0.73;;;;;;;15.46;59.29;99349.84;5011305;28;20052;-62
2022/07/13 01:11:47;;;;;;;3.38;0.90;;;;;;;15.39;60.29;99353.97;4996514;28;20038;-62
2022/07/13 01:14:34;;;;;;;2.17;0.82;;;;;;;15.37;59.48;99340.84;5014146;28;20355;-62
2022/07/13 01:17:18;;;;;;;1.70;0.77;;;;;;;15.35;59.61;99350.72;5016127;28;20042;-63
2022/07/13 01:20:05;;;;;;;2.33;0.70;;;;;;;15.36;59.65;99349.75;4995552;28;20081;-62
2022/07/13 01:22:52;;;;;;;1.88;0.60;;;;;;;15.35;59.33;99350.72;5024164;28;20046;-62
2022/07/13 01:25:37;;;;;;;3.20;0.63;;;;;;;15.37;59.29;99351.41;5011095;28;20085;-62
2022/07/13 01:28:23;;;;;;;1.50;0.60;;;;;;;15.35;59.78;99355.16;5010768;28;20061;-62
2022/07/13 01:31:08;;;;;;;2.00;0.70;;;;;;;15.33;60.01;99334.16;4999281;28;20054;-62
2022/07/13 01:33:53;;;;;;;1.98;0.60;;;;;;;15.44;59.93;99340.41;5002048;28;20065;-63
2022/07/13 01:36:40;;;;;;;0.75;0.50;;;;;;;15.47;60.37;99338.31;5014122;28;20124;-62
2022/07/13 01:39:25;;;;;;;1.00;0.50;;;;;;;15.53;59.99;99339.66;5015095;28;20046;-63
2022/07/13 01:42:09;;;;;;;1.42;0.60;;;;;;;15.41;58.92;99333.53;5001900;28;20045;-63
2022/07/13 01:44:55;;;;;;;2.45;0.73;;;;;;;15.42;58.53;99327.31;5013572;28;20482;-62
2022/07/13 01:47:43;;;;;;;1.92;0.68;;;;;;;15.40;58.80;99326.59;5014656;28;20050;-63
2022/07/13 01:50:27;;;;;;;1.58;0.80;;;;;;;15.45;58.54;99321.78;5027366;28;20046;-62
2022/07/13 01:53:12;;;;;;;2.65;0.43;;;;;;;15.44;58.19;99324.56;5014164;28;20053;-62
2022/07/13 01:55:57;;;;;;;1.38;0.65;;;;;;;15.50;59.00;99332.78;5015815;28;20046;-63
2022/07/13 01:58:42;;;;;;;1.90;0.70;;;;;;;15.53;58.75;99323.81;5015084;28;20430;-62
2022/07/13 02:01:27;;;;;;;2.63;0.50;;;;;;;15.58;58.86;99324.28;5032589;28;20057;-62
2022/07/13 02:04:12;;;;;;;1.92;0.45;;;;;;;15.55;60.17;99327.16;5037584;28;20045;-62
2022/07/13 02:06:57;;;;;;;0.98;0.68;;;;;;;15.56;57.46;99322.72;5007455;28;20076;-61
2022/07/13 02:09:42;;;;;;;0.70;0.47;;;;;;;15.54;57.05;99329.94;5014905;28;20068;-62
2022/07/13 02:12:26;;;;;;;1.30;0.43;;;;;;;15.56;58.84;99331.47;5025982;28;20049;-62
2022/07/13 02:15:11;;;;;;;1.80;0.45;;;;;;;15.62;58.73;99325.69;5027036;28;20069;-63
2022/07/13 02:17:59;;;;;;;1.67;0.50;;;;;;;15.55;58.02;99329.81;5013507;28;20064;-61
2022/07/13 02:20:44;;;;;;;1.52;0.60;;;;;;;15.57;58.23;99325.22;5014256;28;20506;-62
2022/07/13 02:23:30;;;;;;;1.25;0.68;;;;;;;15.58;59.70;99319.00;5003575;28;20041;-62
2022/07/13 02:26:15;;;;;;;0.88;0.52;;;;;;;15.49;60.87;99319.72;5010699;28;20041;-61
2022/07/13 02:29:00;;;;;;;0.80;0.55;;;;;;;15.55;59.16;99319.25;5026055;28;20107;-61
2022/07/13 02:31:44;;;;;;;2.10;0.70;;;;;;;15.54;61.65;99328.13;4986413;28;20041;-62
2022/07/13 02:34:29;;;;;;;1.25;0.50;;;;;;;15.42;60.72;99322.03;5025794;28;20045;-63
2022/07/13 02:37:14;;;;;;;2.17;0.70;;;;;;;15.50;60.37;99319.59;5012313;28;20103;-61
2022/07/13 02:39:59;;;;;;;3.72;0.60;;;;;;;15.31;59.56;99314.97;5012842;28;20043;-62
2022/07/13 02:42:44;;;;;;;2.20;0.50;;;;;;;15.14;59.64;99316.31;5012433;28;20095;-62
2022/07/13 02:45:32;;;;;;;1.13;0.50;;;;;;;15.06;61.26;99316.94;4999072;28;20045;-62
2022/07/13 02:48:16;;;;;;;1.73;0.90;;;;;;;15.08;60.22;99320.25;5028873;28;20409;-62
2022/07/13 02:51:01;;;;;;;0.85;0.40;;;;;;;15.12;58.73;99320.88;5034146;28;20057;-62
2022/07/13 02:53:46;;;;;;;3.50;0.50;;;;;;;15.16;58.90;99319.69;4998901;28;20873;-62
2022/07/13 02:56:33;;;;;;;1.27;0.38;;;;;;;15.22;58.35;99313.91;4997987;28;20414;-62
2022/07/13 02:59:18;;;;;;;0.60;0.52;;;;;;;15.06;58.06;99324.84;5026301;28;20041;-62
2022/07/13 03:02:04;;;;;;;1.75;0.60;;;;;;;15.02;59.15;99326.88;5025759;28;20042;-62
2022/07/13 03:04:51;;;;;;;1.77;0.50;;;;;;;15.12;59.58;99316.44;5012309;28;20049;-62
2022/07/13 03:07:36;;;;;;;1.00;0.60;;;;;;;15.14;59.17;99317.16;5025444;28;20053;-62
2022/07/13 03:10:21;;;;;;;1.45;0.55;;;;;;;15.06;58.35;99326.63;5012329;28;20068;-61
2022/07/13 03:13:09;;;;;;;1.90;0.50;;;;;;;15.14;57.97;99332.16;4998731;28;20053;-61
2022/07/13 03:15:55;;;;;;;1.55;0.90;;;;;;;15.14;58.27;99324.22;4998075;28;20041;-61
2022/07/13 03:18:40;;;;;;;0.70;0.45;;;;;;;15.22;58.98;99318.34;5011347;28;20042;-61
2022/07/13 03:21:27;;;;;;;1.17;0.60;;;;;;;15.17;59.02;99318.72;4985465;28;20034;-63
2022/07/13 03:24:13;;;;;;;0.65;0.50;;;;;;;15.20;59.05;99328.16;5026036;28;20049;-62
2022/07/13 03:26:58;;;;;;;2.05;0.70;;;;;;;15.23;58.26;99315.56;4997473;28;20070;-63
2022/07/13 03:29:44;;;;;;;1.65;0.60;;;;;;;15.19;58.70;99326.50;5029469;28;20084;-62
2022/07/13 03:32:29;;;;;;;0.68;0.52;;;;;;;15.23;58.16;99322.66;5032010;28;20501;-62
2022/07/13 03:35:15;;;;;;;0.68;0.40;;;;;;;15.24;58.31;99321.69;5025378;28;20041;-62
2022/07/13 03:38:02;;;;;;;1.60;0.45;;;;;;;15.25;58.38;99318.94;5011503;28;20066;-62
2022/07/13 03:40:50;;;;;;;1.23;0.60;;;;;;;15.24;58.91;99319.88;5010736;28;20730;-62
2022/07/13 03:43:34;;;;;;;1.73;0.70;;;;;;;15.32;58.92;99319.28;4997689;28;20472;-61
2022/07/13 03:46:19;;;;;;;2.17;0.57;;;;;;;15.37;58.02;99322.38;5025380;28;20049;-62
2022/07/13 03:49:04;;;;;;;1.80;0.90;;;;;;;15.36;58.95;99323.34;5013878;28;20052;-61
2022/07/13 03:51:49;;;;;;;1.30;0.60;;;;;;;15.37;58.90;99317.09;5010683;28;20038;-61
2022/07/13 03:54:35;;;;;;;1.13;0.50;;;;;;;15.38;59.50;99324.06;5024637;28;20509;-61
2022/07/13 03:57:19;;;;;;;2.17;0.70;;;;;;;15.36;60.83;99326.00;5011445;28;20041;-62
2022/07/13 04:00:05;;;;;;;1.75;0.60;;;;;;;15.38;59.86;99316.16;5010949;28;20111;-61
2022/07/13 04:02:59;;;;;;;0.63;0.47;;;;;;;15.39;59.57;99330.22;5010690;28;20054;-61
2022/07/13 04:05:45;;;;;;;1.63;0.77;;;;;;;15.39;59.52;99317.81;5008022;28;20038;-61
2022/07/13 04:08:30;;;;;;;3.22;0.57;;;;;;;15.49;61.66;99317.94;5012220;28;20387;-61
2022/07/13 04:11:17;;;;;;;1.00;0.60;;;;;;;15.58;58.85;99318.16;5005068;28;20046;-61
2022/07/13 04:14:02;;;;;;;3.85;0.77;;;;;;;15.60;58.87;99317.06;5000994;28;20105;-61
2022/07/13 04:16:47;;;;;;;1.23;0.77;;;;;;;15.60;59.06;99319.69;5010369;28;20092;-62
2022/07/13 04:19:32;;;;;;;1.25;0.65;;;;;;;15.73;59.02;99326.63;5002505;28;20037;-62
2022/07/13 04:22:17;;;;;;;2.05;0.80;;;;;;;15.81;60.95;99331.28;5017306;28;20042;-61
2022/07/13 04:25:04;;;;;;;1.98;0.80;;;;;;;15.88;58.47;99328.00;5024725;28;20129;-61
2022/07/13 04:27:48;;;;;;;1.70;0.90;;;;;;;15.99;59.12;99323.69;4995800;28;20127;-61
2022/07/13 04:30:33;;;;;;;1.10;0.60;;;;;;;16.10;60.45;99331.56;5024621;28;20085;-61
2022/07/13 04:33:18;;;;;;;0.90;0.60;;;;;;;16.03;58.80;99332.22;5010946;28;20042;-61
2022/07/13 04:36:06;;;;;;;1.67;0.70;;;;;;;16.09;58.22;99326.41;5011636;28;20042;-62
2022/07/13 04:38:52;;;;;;;1.13;0.57;;;;;;;16.19;60.77;99334.41;5010306;28;20427;-62
2022/07/13 04:41:38;;;;;;;2.45;0.90;;;;;;;16.29;58.42;99337.94;5000710;28;20045;-62
2022/07/13 04:44:25;;;;;;;1.67;0.80;;;;;;;16.38;60.62;99339.84;5003342;28;20050;-62
2022/07/13 04:47:10;;;;;;;1.05;0.75;;;;;;;16.57;58.21;99345.34;5015055;28;20046;-62
2022/07/13 04:49:55;;;;;;;2.05;0.80;;;;;;;16.62;60.08;99348.47;5012738;28;20833;-62
2022/07/13 04:52:40;;;;;;;1.23;0.70;;;;;;;16.54;57.37;99338.53;5032597;28;20513;-62
2022/07/13 04:55:26;;;;;;;1.52;0.68;;;;;;;16.38;57.97;99339.84;5024624;28;20053;-62
2022/07/13 04:58:11;;;;;;;1.33;0.75;;;;;;;16.64;57.74;99341.25;5023629;28;20438;-62
2022/07/13 05:00:55;;;;;;;2.03;0.90;;;;;;;16.45;58.25;99334.84;5009655;28;20410;-64
2022/07/13 05:03:40;;;;;;;1.92;1.10;;;;;;;16.66;58.18;99339.31;5011602;28;20066;-62
2022/07/13 05:06:25;;;;;;;2.05;1.10;;;;;;;16.80;57.75;99334.63;4989960;28;20501;-62
2022/07/13 05:09:11;;;;;;;2.35;0.93;;;;;;;16.97;57.73;99333.19;5017412;28;20037;-61
2022/07/13 05:11:55;;;;;;;2.55;1.00;;;;;;;17.09;55.83;99332.13;5021777;28;20049;-61
2022/07/13 05:14:41;;;;;;;2.42;1.05;;;;;;;17.14;56.43;99323.78;5001636;28;20096;-61
2022/07/13 05:17:27;;;;;;;2.50;1.20;;;;;;;17.22;57.13;99328.41;5027247;28;20229;-61
2022/07/13 05:20:13;;;;;;;2.95;1.05;;;;;;;17.18;55.59;99322.56;5028207;28;20065;-61
2022/07/13 05:23:04;;;;;;;3.72;1.10;;;;;;;17.27;56.13;99328.84;4999780;28;20403;-61
2022/07/13 05:25:51;;;;;;;3.53;1.00;;;;;;;17.49;55.75;99335.72;5027543;28;20049;-61
2022/07/13 05:28:37;;;;;;;5.43;1.20;;;;;;;17.52;54.56;99337.28;4994557;28;20050;-61
2022/07/13 05:31:22;;;;;;;2.50;0.80;;;;;;;17.40;54.28;99335.72;4998320;28;20053;-62
2022/07/13 05:34:07;;;;;;;1.38;0.80;;;;;;;17.67;54.35;99323.63;5027844;28;20077;-61
2022/07/13 05:36:55;;;;;;;1.63;0.90;;;;;;;17.90;53.81;99324.22;5027352;28;20046;-62
2022/07/13 05:39:47;;;;;;;2.42;0.98;;;;;;;18.13;52.84;99321.31;5028106;28;20077;-62
2022/07/13 05:42:32;;;;;;;3.28;1.65;;;;;;;18.02;53.28;99321.44;5027051;28;20065;-62
2022/07/13 05:45:19;;;;;;;5.32;0.80;;;;;;;18.21;53.88;99324.06;5013263;28;20078;-62
2022/07/13 05:48:13;;;;;;;3.03;0.90;;;;;;;18.42;52.57;99322.25;4990531;28;20107;-62
2022/07/13 05:50:58;;;;;;;2.45;1.10;;;;;;;18.22;53.47;99319.63;5026779;28;20045;-63
2022/07/13 05:53:43;;;;;;;1.48;1.00;;;;;;;18.26;52.95;99321.03;5027618;28;20085;-62
2022/07/13 05:56:30;;;;;;;1.52;0.80;;;;;;;18.65;53.19;99324.56;5000610;28;20437;-62
2022/07/13 05:59:15;;;;;;;2.17;0.90;;;;;;;19.05;53.13;99320.78;5013687;28;20042;-62
2022/07/13 06:02:00;;;;;;;1.48;0.70;;;;;;;18.61;53.18;99316.03;5013502;28;20048;-62
2022/07/13 06:04:46;;;;;;;3.47;1.10;;;;;;;18.31;52.93;99321.41;5012510;28;20073;-62
2022/07/13 06:07:30;;;;;;;3.85;0.90;;;;;;;18.27;54.10;99327.97;5027810;28;20096;-61
2022/07/13 06:10:15;;;;;;;4.10;1.02;;;;;;;18.06;56.10;99321.00;5014626;28;20071;-62
2022/07/13 06:13:00;;;;;;;3.78;0.98;;;;;;;18.26;57.08;99326.31;5014423;28;20125;-62
2022/07/13 06:15:44;;;;;;;2.53;1.00;;;;;;;18.28;55.80;99324.34;4997958;28;20491;-63
2022/07/13 06:18:29;;;;;;;5.18;0.90;;;;;;;18.23;56.43;99326.56;5013472;28;20076;-61
2022/07/13 06:21:14;;;;;;;1.40;0.90;;;;;;;18.56;56.88;99324.44;5013484;28;20073;-61
2022/07/13 06:23:58;;;;;;;4.03;0.93;;;;;;;18.60;55.30;99325.00;5013117;28;20048;-61
2022/07/13 06:26:44;;;;;;;0.95;0.63;;;;;;;18.60;55.71;99322.34;5012715;28;20061;-62
2022/07/13 06:29:29;;;;;;;2.28;0.90;;;;;;;19.15;53.19;99319.91;5013582;28;20898;-61
2022/07/13 06:32:14;;;;;;;1.20;0.60;;;;;;;19.72;53.14;99312.69;5027125;28;20046;-61
2022/07/13 06:34:58;;;;;;;3.92;1.00;;;;;;;20.07;51.39;99316.38;5012083;28;20406;-61
2022/07/13 06:37:45;;;;;;;3.30;0.90;;;;;;;20.38;51.71;99317.78;5011946;28;20099;-61
2022/07/13 06:40:30;;;;;;;5.72;1.00;;;;;;;21.02;50.16;99325.47;5026148;28;20485;-61
2022/07/13 06:43:15;;;;;;;5.57;1.10;;;;;;;20.84;51.95;99330.03;5013121;28;20068;-61
2022/07/13 06:46:01;;;;;;;5.80;1.00;;;;;;;21.01;49.97;99323.81;5012761;28;20064;-62
2022/07/13 06:48:45;;;;;;;1.92;0.80;;;;;;;21.00;49.13;99319.47;5013520;28;20054;-61
2022/07/13 06:51:30;;;;;;;2.35;0.68;;;;;;;20.95;49.30;99324.44;5015926;28;20066;-61
2022/07/13 06:54:15;;;;;;;1.38;0.52;;;;;;;20.72;49.36;99324.13;5013746;28;20061;-61
2022/07/13 06:57:00;;;;;;;2.95;0.70;;;;;;;20.67;49.20;99341.41;5012493;28;20105;-61
2022/07/13 06:59:44;;;;;;;1.17;0.88;;;;;;;21.33;46.96;99334.72;5012822;28;20092;-61
2022/07/13 07:02:29;;;;;;;2.20;0.80;;;;;;;21.86;46.24;99345.22;5017192;28;20038;-61
2022/07/13 07:05:14;;;;;;;2.28;0.70;;;;;;;21.25;45.82;99345.38;5012159;28;20103;-61
2022/07/13 07:08:00;;;;;;;0.80;0.60;;;;;;;21.39;46.51;99338.59;5001734;28;20069;-61
2022/07/13 07:10:46;;;;;;;3.85;0.60;;;;;;;21.70;45.00;99329.16;4997873;28;20177;-61
2022/07/13 07:13:30;;;;;;;3.13;0.57;;;;;;;22.09;45.50;99327.72;5025201;28;20042;-61
2022/07/13 07:16:15;;;;;;;1.73;0.70;;;;;;;22.34;46.08;99325.03;5012752;28;20061;-62
2022/07/13 07:19:00;;;;;;;2.83;0.60;;;;;;;23.09;44.92;99320.38;5024943;28;20490;-60
2022/07/13 07:21:45;;;;;;;1.23;0.60;;;;;;;23.13;43.42;99321.66;5011759;28;20049;-61
2022/07/13 07:24:31;;;;;;;1.77;0.70;;;;;;;23.66;43.41;99320.25;5011932;28;20033;-61
2022/07/13 07:27:16;;;;;;;5.88;0.75;;;;;;;23.86;41.97;99319.78;5011514;28;20058;-62
2022/07/13 07:30:01;;;;;;;3.85;0.65;;;;;;;23.87;43.10;99316.09;5025212;28;20046;-62
2022/07/13 07:32:45;;;;;;;1.15;0.57;;;;;;;23.55;43.21;99329.47;5012253;28;20529;-62
2022/07/13 07:35:30;;;;;;;4.15;0.65;;;;;;;23.64;41.99;99316.91;5012257;28;20042;-63
2022/07/13 07:38:15;;;;;;;2.15;0.80;;;;;;;24.01;41.48;99316.31;5011003;28;20042;-63
2022/07/13 07:41:01;;;;;;;4.55;0.60;;;;;;;24.04;41.78;99321.31;5011723;28;20487;-63
2022/07/13 07:43:46;;;;;;;2.35;0.63;;;;;;;23.92;41.40;99324.41;5000827;28;20502;-63
2022/07/13 07:46:31;;;;;;;1.58;0.90;;;;;;;24.31;41.47;99309.22;5012029;28;20030;-63
2022/07/13 07:49:16;;;;;;;3.63;0.70;;;;;;;24.32;40.17;99310.88;5025032;28;20398;-63
2022/07/13 07:52:01;;;;;;;1.33;0.82;;;;;;;24.42;39.74;99313.28;5011714;28;20056;-63
2022/07/13 07:54:46;;;;;;;4.75;0.73;;;;;;;24.83;40.60;99300.44;5011234;28;20074;-63
2022/07/13 07:57:31;;;;;;;2.38;0.70;;;;;;;24.41;40.04;99302.75;5010996;28;20049;-63
2022/07/13 08:00:16;;;;;;;2.90;0.65;;;;;;;24.51;40.92;99302.50;5024837;28;20507;-63
2022/07/13 08:03:03;;;;;;;3.97;0.65;;;;;;;24.61;40.01;99300.38;5017703;28;20045;-63
2022/07/13 08:05:51;;;;;;;3.72;0.70;;;;;;;25.33;38.38;99294.50;4992999;28;20046;-63
2022/07/13 08:08:36;;;;;;;1.75;0.60;;;;;;;25.08;38.68;99290.31;5007885;28;20156;-64
2022/07/13 08:11:21;;;;;;;2.38;0.95;;;;;;;25.33;38.19;99286.47;5014074;28;20041;-63
2022/07/13 08:14:06;;;;;;;1.45;0.60;;;;;;;25.68;39.35;99300.03;4997785;28;20053;-63
2022/07/13 08:16:51;;;;;;;1.10;0.50;;;;;;;25.80;38.93;99280.75;5014728;28;20394;-63
2022/07/13 08:19:37;;;;;;;1.83;0.50;;;;;;;25.88;37.36;99277.94;5003932;28;20084;-63
2022/07/13 08:22:21;;;;;;;4.07;0.88;;;;;;;26.61;36.22;99273.28;5008554;28;20042;-63
2022/07/13 08:25:06;;;;;;;2.08;0.70;;;;;;;26.33;36.42;99274.16;5013212;28;20046;-64
2022/07/13 08:27:51;;;;;;;1.00;0.60;;;;;;;26.31;36.03;99266.25;5015782;28;20046;-64
2022/07/13 08:30:37;;;;;;;2.13;0.60;;;;;;;26.64;36.79;99272.88;5010827;28;20053;-63
2022/07/13 08:38:34;;;;;;;1.65;0.52;;;;;;;26.25;37.22;99274.25;4983710;28;20054;-64
2022/07/13 08:39:47;;;;;;;1.45;0.50;;;;;;;26.43;35.93;99265.75;5021818;28;20038;-64
2022/07/13 08:42:32;;;;;;;2.17;0.52;;;;;;;27.05;34.89;99255.13;5011413;28;20046;-64
2022/07/13 08:45:17;;;;;;;2.80;0.60;;;;;;;27.71;35.00;99264.56;5010484;28;20050;-63
2022/07/13 08:48:12;;;;;;;2.10;0.50;;;;;;;28.30;35.05;99264.75;4996041;28;20490;-64
2022/07/13 08:50:57;;;;;;;1.08;0.30;;;;;;;27.89;33.03;99254.00;5014065;28;20050;-64
2022/07/13 08:53:42;;;;;;;2.97;0.70;;;;;;;27.47;34.86;99272.97;5013985;28;20093;-64
2022/07/13 08:56:27;;;;;;;1.50;0.50;;;;;;;27.88;32.93;99263.13;5010836;28;20378;-63
2022/07/13 08:59:13;;;;;;;0.73;0.47;;;;;;;28.14;33.09;99269.50;5011993;28;20072;-63
2022/07/13 09:01:58;;;;;;;1.38;0.30;;;;;;;27.45;32.90;99263.47;5010974;28;20038;-65
2022/07/13 09:04:44;;;;;;;1.20;0.40;;;;;;;27.77;34.01;99261.03;5024390;28;20069;-66
2022/07/13 09:07:29;;;;;;;0.63;0.30;;;;;;;27.41;36.76;99255.81;5011761;28;20383;-65
2022/07/13 09:10:15;;;;;;;2.33;0.30;;;;;;;27.69;33.78;99250.47;4985969;28;20049;-63
2022/07/13 09:12:59;;;;;;;1.90;0.40;;;;;;;27.46;32.69;99255.19;5008876;28;20533;-63
2022/07/13 09:15:44;;;;;;;1.70;0.60;;;;;;;28.01;33.03;99242.59;5019770;28;20070;-64
2022/07/13 09:18:35;;;;;;;1.30;0.52;;;;;;;27.94;32.00;99255.25;5020562;28;20534;-63
2022/07/13 09:21:23;;;;;;;2.92;0.63;;;;;;;27.67;33.39;99258.72;5011338;28;20045;-63
2022/07/13 09:24:07;;;;;;;2.17;0.60;;;;;;;28.04;30.47;99266.41;5020561;28;20046;-63
2022/07/13 09:26:52;;;;;;;0.95;0.40;;;;;;;27.87;32.66;99253.41;5010359;28;20509;-64
2022/07/13 09:29:37;;;;;;;1.83;0.60;;;;;;;28.87;33.23;99263.34;5011937;28;20057;-63
2022/07/13 09:32:24;;;;;;;1.52;0.57;;;;;;;29.30;32.78;99253.00;5021799;28;20061;-64
2022/07/13 09:35:10;;;;;;;1.23;0.40;;;;;;;28.28;31.79;99247.97;5010422;28;20037;-62
2022/07/13 09:37:57;;;;;;;0.90;0.40;;;;;;;28.80;35.00;99254.44;5033305;28;20484;-62
2022/07/13 09:40:42;;;;;;;0.98;0.50;;;;;;;29.66;30.58;99246.13;5020122;28;20491;-62
2022/07/13 09:46:30;;;;;;;4.75;0.50;;;;;;;29.60;32.59;99242.44;5017575;28;20045;-65
2022/07/13 09:49:32;;;;;;;1.00;0.57;;;;;;;29.33;31.12;99247.97;5020374;28;20120;-64
2022/07/13 09:52:21;;;;;;;0.85;0.35;;;;;;;30.09;30.53;99227.47;5019671;28;20050;-65
2022/07/13 09:55:06;;;;;;;1.75;0.50;;;;;;;28.95;29.90;99244.25;5021565;28;20509;-63
2022/07/13 09:57:56;;;;;;;0.68;0.40;;;;;;;29.06;30.38;99237.38;5026600;28;20069;-65
2022/07/13 10:00:40;;;;;;;1.95;0.50;;;;;;;28.99;31.13;99242.78;5001665;28;20482;-64
2022/07/13 10:03:33;;;;;;;0.70;0.40;;;;;;;29.43;31.11;99225.91;5012631;28;20058;-64
2022/07/13 10:06:20;;;;;;;0.77;0.55;;;;;;;28.90;30.89;99223.28;5024626;28;20072;-64
2022/07/13 10:09:05;;;;;;;0.80;0.30;;;;;;;29.77;28.96;99222.16;5022572;28;20132;-64
2022/07/13 10:11:50;;;;;;;1.23;0.30;;;;;;;31.16;27.57;99210.25;5012812;28;20417;-64
2022/07/13 10:14:36;;;;;;;2.15;0.40;;;;;;;30.39;28.78;99217.84;5010733;28;20049;-64
2022/07/13 10:17:21;;;;;;;0.50;0.40;;;;;;;29.86;31.43;99226.22;5013742;28;20046;-65
2022/07/13 10:20:21;;;;;;;1.10;0.20;;;;;;;29.80;28.57;99210.94;5023909;28;20052;-63
2022/07/13 10:23:05;;;;;;;2.05;0.30;;;;;;;28.20;29.96;99214.03;5002284;28;20050;-64
2022/07/13 10:25:51;;;;;;;1.75;0.30;;;;;;;29.51;27.37;99208.63;5025922;28;20402;-64
2022/07/13 10:28:36;;;;;;;0.38;0.28;;;;;;;29.58;26.51;99201.34;5013327;28;20077;-63
2022/07/13 10:31:28;;;;;;;0.40;0.30;;;;;;;30.55;26.55;99203.75;5015000;28;20046;-63
2022/07/13 10:34:14;;;;;;;0.43;0.20;;;;;;;30.66;25.53;99198.59;5013593;28;20053;-64
2022/07/13 10:37:00;;;;;;;1.48;0.35;;;;;;;30.71;28.79;99196.03;5003056;28;20046;-64
2022/07/13 10:40:11;;;;;;;2.42;0.30;;;;;;;30.44;26.73;99191.78;5013494;28;20117;-64
2022/07/13 10:42:57;;;;;;;1.02;0.22;;;;;;;31.13;26.56;99189.88;5026051;28;20042;-64
2022/07/13 10:45:52;;;;;;;0.47;0.22;;;;;;;30.72;26.08;99179.59;5013230;28;20461;-64
2022/07/13 10:48:36;;;;;;;0.68;0.28;;;;;;;31.61;24.54;99205.41;5000983;28;20778;-64
2022/07/13 10:51:22;;;;;;;1.80;0.30;;;;;;;32.48;23.57;99194.84;5012713;28;20336;-63
2022/07/13 10:54:09;;;;;;;0.63;0.30;;;;;;;32.33;25.19;99198.88;5014768;28;20453;-63
2022/07/13 10:57:13;;;;;;;1.17;0.40;;;;;;;31.59;23.53;99206.47;5013970;28;20052;-63
2022/07/13 11:00:29;;;;;;;0.68;0.38;;;;;;;32.50;23.75;99191.88;4998373;28;20115;-65
2022/07/13 11:03:29;;;;;;;1.83;0.30;;;;;;;31.40;23.99;99180.56;5012472;28;20046;-64
2022/07/13 11:06:20;;;;;;;0.52;0.30;;;;;;;30.27;24.15;99207.78;5001171;28;20100;-69
2022/07/13 11:09:14;;;;;;;1.42;0.35;;;;;;;32.23;23.84;99198.69;5025550;28;20062;-64
2022/07/13 11:11:58;;;;;;;0.60;0.28;;;;;;;32.10;22.49;99202.47;5019336;28;20103;-64
2022/07/13 11:14:47;;;;;;;0.73;0.30;;;;;;;32.35;22.30;99189.72;4998280;28;20050;-64
2022/07/13 11:17:32;;;;;;;0.20;0.20;;;;;;;32.32;24.35;99191.00;5012649;28;20038;-64
2022/07/13 11:20:17;;;;;;;0.50;0.30;;;;;;;31.94;22.71;99187.75;5012414;28;20065;-64
2022/07/13 11:26:13;;;;;;;1.02;0.30;;;;;;;31.30;23.39;99195.44;5008412;28;20500;-64
2022/07/13 11:29:05;;;;;;;0.43;0.15;;;;;;;31.91;23.33;99180.91;4997442;28;20509;-63
2022/07/13 11:32:00;;;;;;;0.93;0.20;;;;;;;32.72;23.89;99183.97;5012568;28;20054;-64
2022/07/13 11:34:46;;;;;;;0.43;0.10;;;;;;;32.29;21.50;99183.34;5014183;28;20491;-62
2022/07/13 11:37:31;;;;;;;0.80;0.20;;;;;;;31.96;22.70;99189.19;5011326;28;20050;-63
2022/07/13 11:40:30;;;;;;;0.47;0.20;;;;;;;32.61;22.37;99174.00;5011029;28;20396;-62
2022/07/13 11:43:15;;;;;;;1.15;0.22;;;;;;;33.45;21.21;99176.25;5008984;28;20049;-62
2022/07/13 11:46:04;;;;;;;2.47;0.20;;;;;;;32.32;22.77;99180.16;5010900;28;20030;-62
2022/07/13 11:49:06;;;;;;;3.70;0.43;;;;;;;33.03;24.43;99172.84;5020620;28;20056;-62
2022/07/13 11:51:51;;;;;;;2.13;0.30;;;;;;;34.33;21.62;99176.69;4994267;28;20046;-61
2022/07/13 11:54:36;;;;;;;1.15;0.22;;;;;;;34.23;21.67;99171.97;5014993;28;20124;-61
2022/07/13 11:57:21;;;;;;;0.77;0.30;;;;;;;33.71;22.46;99172.06;5004999;28;20450;-61
2022/07/13 12:00:08;;;;;;;1.23;0.20;;;;;;;33.89;22.11;99172.84;5009721;28;20119;-61
2022/07/13 12:02:58;;;;;;;0.73;0.20;;;;;;;32.30;23.82;99169.56;5013650;28;20092;-63
2022/07/13 12:05:48;;;;;;;2.22;0.28;;;;;;;31.75;24.63;99170.78;5009526;28;20490;-62
2022/07/13 12:08:34;;;;;;;;;;;;;;;33.01;22.65;99167.66;4998031;28;20046;-63
2022/07/13 12:11:19;;;;;;;0.80;0.30;;;;;;;32.80;24.51;99161.88;5025195;28;19928;-63
2022/07/13 12:14:04;;;;;;;0.75;0.20;;;;;;;33.10;25.85;99165.38;5006203;28;20491;-63
2022/07/13 12:16:49;;;;;;;0.57;0.30;;;;;;;33.51;22.70;99157.09;5012627;28;20085;-64
2022/07/13 12:19:34;;;;;;;0.68;0.20;;;;;;;32.94;23.36;99151.53;5012372;28;20084;-62
2022/07/13 12:22:23;;;;;;;0.47;0.30;;;;;;;33.63;23.60;99148.06;4969728;28;20045;-61
2022/07/13 12:25:08;;;;;;;0.30;0.20;;;;;;;34.71;21.83;99134.19;5005788;28;20049;-61
2022/07/13 12:27:54;;;;;;;0.60;0.25;;;;;;;32.03;22.64;99131.34;5009372;28;20482;-63
2022/07/13 12:31:00;;;;;;;0.35;0.20;;;;;;;32.48;21.62;99140.63;5008158;28;20057;-63
2022/07/13 12:33:46;;;;;;;1.83;1.00;;;;;;;32.15;23.71;99134.03;5018948;28;20116;-62
2022/07/13 12:36:37;;;;;;;0.30;0.20;;;;;;;32.65;22.57;99134.47;5011638;28;20073;-63
2022/07/13 12:39:35;;;;;;;2.35;0.22;;;;;;;32.74;21.15;99130.31;5010209;28;20454;-62
2022/07/13 12:42:20;;;;;;;1.25;0.20;;;;;;;32.19;21.25;99127.06;5011157;28;20041;-62
2022/07/13 12:45:16;;;;;;;0.30;0.13;;;;;;;31.87;23.68;99116.63;5010370;28;20140;-62
2022/07/13 12:48:01;;;;;;;0.40;0.20;;;;;;;33.58;21.47;99123.50;5011191;28;20037;-62
2022/07/13 12:51:08;;;;;;;2.25;0.20;;;;;;;32.77;20.64;99120.88;5011267;28;20116;-63
2022/07/13 12:53:56;;;;;;;0.43;0.30;;;;;;;32.79;20.24;99119.56;5011584;28;20041;-63
2022/07/13 12:56:52;;;;;;;0.40;0.30;;;;;;;33.11;20.20;99110.09;5011670;28;20383;-62
2022/07/13 12:59:37;;;;;;;2.85;0.20;;;;;;;34.40;18.90;99110.22;5011818;28;20065;-61
2022/07/13 13:02:22;;;;;;;4.57;0.22;;;;;;;33.08;19.19;99099.72;4999981;28;20046;-62
2022/07/13 13:05:11;;;;;;;0.30;0.20;;;;;;;32.85;20.74;99109.63;5010746;28;20046;-62
2022/07/13 13:07:56;;;;;;;0.28;0.10;;;;;;;32.52;20.82;99098.47;4999689;28;20485;-63
2022/07/13 13:10:41;;;;;;;0.52;0.13;;;;;;;30.95;21.46;99101.53;5010979;28;20089;-63
2022/07/13 13:13:28;;;;;;;0.17;0.10;;;;;;;30.75;22.56;99108.03;5011640;28;20441;-64